Time;durP1;ratioP1;P1;durP2;ratioP2;P2;SDS_P1;SDS_P2;PMS_P1;PMS_P2;Temp;Humidity;BMP_temperature;BMP_pressure;BME280_temperature;BME280_humidity;BME280_pressure;Samples;Min_cycle;Max_cycle;Signal;HPM_P1;HPM_P2
2022/09/30 00:01:17;;;;;;;5.32;4.82;;;11.30;99.90;;;;;;5050601;28;20080;-62
2022/09/30 00:03:43;;;;;;;8.45;5.65;;;11.20;99.90;;;;;;5050713;28;20450;-63
2022/09/30 00:06:09;;;;;;;6.22;5.20;;;11.20;99.90;;;;;;5049891;28;20052;-62
2022/09/30 00:08:38;;;;;;;7.70;5.40;;;11.20;99.90;;;;;;5050834;28;20047;-64
2022/09/30 00:11:15;;;;;;;7.60;5.22;;;11.20;99.90;;;;;;5049641;28;20036;-63
2022/09/30 00:13:41;;;;;;;8.50;5.00;;;11.20;99.90;;;;;;5050910;28;20037;-64
2022/09/30 00:16:09;;;;;;;7.00;5.15;;;11.20;99.90;;;;;;5050264;28;20123;-63
2022/09/30 00:18:35;;;;;;;7.00;5.40;;;11.20;99.90;;;;;;5054748;28;20045;-63
2022/09/30 00:21:02;;;;;;;9.45;5.43;;;11.20;99.90;;;;;;5056183;28;20377;-63
2022/09/30 00:23:27;;;;;;;7.15;5.38;;;11.20;99.90;;;;;;5055877;28;20076;-63
2022/09/30 00:25:58;;;;;;;7.03;5.30;;;11.20;99.90;;;;;;5057010;28;20087;-63
2022/09/30 00:28:24;;;;;;;5.65;4.97;;;11.10;99.90;;;;;;5057289;28;20418;-63
2022/09/30 00:30:50;;;;;;;6.93;4.60;;;11.00;99.90;;;;;;5057014;28;20080;-63
2022/09/30 00:33:16;;;;;;;8.48;5.90;;;11.00;99.90;;;;;;5057398;28;20144;-63
2022/09/30 00:35:41;;;;;;;6.90;5.60;;;10.90;99.90;;;;;;5056643;28;20076;-64
2022/09/30 00:38:07;;;;;;;7.88;5.93;;;10.90;99.90;;;;;;5011309;28;1299067;-63
2022/09/30 00:40:33;;;;;;;7.05;4.95;;;10.90;99.90;;;;;;5055957;28;20048;-63
2022/09/30 00:42:59;;;;;;;7.30;5.45;;;10.70;99.90;;;;;;5056130;28;20037;-63
2022/09/30 00:45:27;;;;;;;6.70;5.35;;;10.80;99.90;;;;;;5057749;28;20052;-63
2022/09/30 00:48:05;;;;;;;6.40;5.00;;;10.80;99.90;;;;;;5057449;28;20032;-63
2022/09/30 00:50:41;;;;;;;6.60;5.20;;;10.60;99.90;;;;;;5057022;28;20032;-63
2022/09/30 00:53:22;;;;;;;6.03;5.43;;;10.60;99.90;;;;;;5057275;28;20025;-63
2022/09/30 00:56:07;;;;;;;6.75;5.40;;;10.60;99.90;;;;;;5056588;28;20327;-63
2022/09/30 00:58:40;;;;;;;6.05;4.85;;;10.50;99.90;;;;;;5045578;28;20048;-64
2022/09/30 01:01:06;;;;;;;7.47;5.70;;;10.50;99.90;;;;;;5056248;28;20041;-63
2022/09/30 01:03:36;;;;;;;6.43;5.63;;;10.40;99.90;;;;;;5057751;28;20048;-64
2022/09/30 01:06:02;;;;;;;6.82;6.13;;;10.30;99.90;;;;;;5057263;28;20048;-64
2022/09/30 01:08:31;;;;;;;6.82;5.82;;;10.20;99.90;;;;;;5057333;28;20045;-63
2022/09/30 01:10:56;;;;;;;8.18;6.18;;;10.20;99.90;;;;;;5057138;28;20428;-63
2022/09/30 01:13:26;;;;;;;6.78;6.07;;;10.10;99.90;;;;;;5057615;28;20116;-63
2022/09/30 01:16:21;;;;;;;6.97;6.28;;;10.00;99.90;;;;;;5056137;28;20048;-63
2022/09/30 01:19:18;;;;;;;8.23;6.05;;;9.90;99.90;;;;;;5057743;28;20055;-63
2022/09/30 01:21:46;;;;;;;7.18;6.28;;;9.90;99.90;;;;;;5052895;28;20045;-63
2022/09/30 01:24:50;;;;;;;9.27;6.63;;;9.80;99.90;;;;;;5057499;28;20033;-64
2022/09/30 01:27:40;;;;;;;9.85;6.22;;;9.80;99.90;;;;;;5034723;28;20051;-63
2022/09/30 01:30:06;;;;;;;7.72;6.75;;;9.60;99.90;;;;;;5032271;28;20489;-63
2022/09/30 01:32:48;;;;;;;7.47;6.68;;;9.60;99.90;;;;;;5045392;28;20041;-63
2022/09/30 01:35:22;;;;;;;8.10;7.13;;;9.60;99.90;;;;;;5053418;28;20044;-63
2022/09/30 01:37:57;;;;;;;9.05;6.88;;;9.60;99.90;;;;;;5052045;28;20068;-63
2022/09/30 01:40:36;;;;;;;8.93;6.88;;;9.50;99.90;;;;;;5053576;28;20116;-63
2022/09/30 01:43:32;;;;;;;8.07;6.65;;;9.50;99.90;;;;;;5039918;28;20419;-64
2022/09/30 01:46:11;;;;;;;10.32;7.00;;;9.40;99.90;;;;;;5053651;28;20458;-63
2022/09/30 01:48:58;;;;;;;7.45;6.63;;;9.40;99.90;;;;;;5054285;28;20056;-64
2022/09/30 01:51:52;;;;;;;8.25;7.35;;;9.40;99.90;;;;;;5053537;28;20032;-64
2022/09/30 01:54:21;;;;;;;7.80;6.50;;;9.40;99.90;;;;;;5053654;28;20052;-63
2022/09/30 01:56:52;;;;;;;7.65;6.70;;;9.40;99.90;;;;;;5053525;28;20044;-64
2022/09/30 01:59:27;;;;;;;6.80;6.10;;;9.30;99.90;;;;;;5053574;28;20047;-63
2022/09/30 02:02:06;;;;;;;9.18;7.18;;;9.30;99.90;;;;;;5052527;28;20048;-63
2022/09/30 02:04:42;;;;;;;8.20;6.68;;;9.30;99.90;;;;;;5053971;28;20045;-63
2022/09/30 02:07:19;;;;;;;8.80;6.85;;;9.30;99.90;;;;;;5053499;28;20095;-63
2022/09/30 02:09:51;;;;;;;7.95;6.57;;;9.30;99.90;;;;;;5052420;28;20395;-63
2022/09/30 02:12:20;;;;;;;7.85;6.60;;;9.30;99.90;;;;;;5053313;28;20040;-64
2022/09/30 02:15:01;;;;;;;8.93;6.72;;;9.30;99.90;;;;;;5051904;28;20128;-63
2022/09/30 02:17:48;;;;;;;8.05;6.57;;;9.30;99.90;;;;;;5053215;28;20761;-63
2022/09/30 02:20:25;;;;;;;8.88;7.25;;;9.30;99.90;;;;;;5053184;28;20033;-63
2022/09/30 02:23:04;;;;;;;9.65;6.50;;;9.30;99.90;;;;;;5053412;28;20063;-64
2022/09/30 02:25:34;;;;;;;8.68;6.20;;;9.20;99.90;;;;;;5052893;28;20052;-64
2022/09/30 02:28:06;;;;;;;7.72;6.93;;;9.20;99.90;;;;;;5053266;28;20029;-64
2022/09/30 02:30:38;;;;;;;7.05;6.35;;;9.00;99.90;;;;;;5052652;28;20063;-64
2022/09/30 02:33:10;;;;;;;7.20;5.90;;;9.00;99.90;;;;;;5053375;28;20116;-64
2022/09/30 02:35:48;;;;;;;7.18;6.32;;;9.00;99.90;;;;;;5051793;28;20124;-63
2022/09/30 02:38:29;;;;;;;9.07;6.53;;;9.00;99.90;;;;;;5052774;28;20045;-64
2022/09/30 02:41:03;;;;;;;7.85;6.30;;;9.00;99.90;;;;;;5052187;28;20044;-64
2022/09/30 02:43:30;;;;;;;7.45;6.57;;;8.90;99.90;;;;;;5052617;28;20032;-63
2022/09/30 02:46:12;;;;;;;7.72;6.93;;;9.00;99.90;;;;;;5051315;28;20029;-63
2022/09/30 02:49:03;;;;;;;9.23;7.00;;;8.90;99.90;;;;;;5051012;28;20060;-63
2022/09/30 02:51:44;;;;;;;8.75;6.97;;;8.90;99.90;;;;;;5051018;28;20608;-64
2022/09/30 02:54:43;;;;;;;6.70;6.00;;;8.90;99.90;;;;;;5051620;28;20028;-63
2022/09/30 02:57:30;;;;;;;10.07;7.15;;;8.80;99.90;;;;;;5049561;28;20065;-63
2022/09/30 02:59:56;;;;;;;7.20;6.47;;;8.80;99.90;;;;;;5051389;28;20125;-64
2022/09/30 03:02:22;;;;;;;7.63;6.82;;;8.80;99.90;;;;;;5051581;28;20120;-64
2022/09/30 03:04:49;;;;;;;7.43;6.43;;;8.70;99.90;;;;;;5051324;28;20045;-63
2022/09/30 03:07:15;;;;;;;8.02;6.90;;;8.70;99.90;;;;;;5051826;28;20108;-63
2022/09/30 03:09:41;;;;;;;8.30;6.28;;;8.70;99.90;;;;;;5050760;28;20119;-64
2022/09/30 03:12:10;;;;;;;10.43;7.72;;;8.70;99.90;;;;;;5052256;28;20493;-63
2022/09/30 03:15:18;;;;;;;8.13;6.65;;;8.70;99.90;;;;;;5052369;28;20526;-64
2022/09/30 03:17:52;;;;;;;8.38;7.45;;;8.70;99.90;;;;;;5051219;28;20045;-64
2022/09/30 03:20:27;;;;;;;;;;;8.60;99.90;;;;;;5052358;28;20496;-63
2022/09/30 03:23:17;;;;;;;8.85;7.32;;;8.60;99.90;;;;;;5052255;28;19916;-64
2022/09/30 03:26:00;;;;;;;7.88;7.07;;;8.60;99.90;;;;;;5051960;28;20045;-63
2022/09/30 03:28:29;;;;;;;7.80;6.97;;;8.60;99.90;;;;;;5052295;28;20114;-64
2022/09/30 03:31:04;;;;;;;7.95;6.80;;;8.60;99.90;;;;;;5051707;28;20087;-65
2022/09/30 03:34:03;;;;;;;10.32;7.75;;;8.60;99.90;;;;;;5052272;28;20116;-63
2022/09/30 03:37:07;;;;;;;8.43;7.53;;;8.60;99.90;;;;;;5040014;28;20037;-63
2022/09/30 03:39:42;;;;;;;7.60;6.80;;;8.60;99.90;;;;;;5051972;28;20052;-63
2022/09/30 03:42:14;;;;;;;7.95;7.05;;;8.60;99.90;;;;;;5051988;28;20373;-63
2022/09/30 03:44:53;;;;;;;8.57;6.65;;;8.50;99.90;;;;;;5051537;28;20036;-63
2022/09/30 03:47:20;;;;;;;9.40;7.82;;;8.50;99.90;;;;;;5050778;28;20060;-63
2022/09/30 03:49:51;;;;;;;8.63;7.43;;;8.40;99.90;;;;;;5050464;28;20069;-64
2022/09/30 03:52:18;;;;;;;8.13;7.18;;;8.40;99.90;;;;;;5051441;28;20400;-64
2022/09/30 03:54:52;;;;;;;8.75;7.05;;;8.40;99.90;;;;;;5050492;28;20044;-64
2022/09/30 03:57:18;;;;;;;8.00;7.20;;;8.40;99.90;;;;;;5051782;28;20073;-64
2022/09/30 03:59:44;;;;;;;7.40;6.70;;;8.40;99.90;;;;;;5051555;28;20068;-63
2022/09/30 04:02:12;;;;;;;8.70;7.80;;;8.40;99.90;;;;;;5050786;28;20045;-63
2022/09/30 04:04:41;;;;;;;8.60;7.22;;;8.40;99.90;;;;;;5051341;28;20037;-63
2022/09/30 04:07:10;;;;;;;10.13;7.43;;;8.40;99.90;;;;;;5051800;28;20056;-64
2022/09/30 04:09:39;;;;;;;7.97;6.80;;;8.40;99.90;;;;;;5051605;28;20076;-63
2022/09/30 04:12:06;;;;;;;8.20;6.95;;;8.30;99.90;;;;;;5051245;28;20112;-64
2022/09/30 04:14:32;;;;;;;8.18;7.00;;;8.30;99.90;;;;;;5049807;28;20032;-63
2022/09/30 04:16:58;;;;;;;9.63;7.10;;;8.20;99.90;;;;;;5050207;28;20033;-63
2022/09/30 04:19:23;;;;;;;7.97;7.00;;;8.30;99.90;;;;;;5050162;28;20056;-64
2022/09/30 04:21:52;;;;;;;8.27;6.50;;;8.30;99.90;;;;;;5051281;28;20037;-64
2022/09/30 04:24:20;;;;;;;8.85;7.15;;;8.30;99.90;;;;;;5051540;28;20049;-63
2022/09/30 04:26:45;;;;;;;8.02;7.20;;;8.20;99.90;;;;;;5049801;28;20041;-64
2022/09/30 04:29:11;;;;;;;8.32;7.43;;;8.20;99.90;;;;;;5051130;28;20102;-64
2022/09/30 04:31:36;;;;;;;8.27;7.38;;;8.10;99.90;;;;;;5051518;28;20037;-64
2022/09/30 04:34:02;;;;;;;7.55;6.50;;;8.10;99.90;;;;;;5051055;28;20450;-63
2022/09/30 04:36:28;;;;;;;9.02;7.20;;;8.10;99.90;;;;;;5050485;28;20072;-63
2022/09/30 04:38:53;;;;;;;7.38;6.57;;;8.10;99.90;;;;;;5049436;28;20079;-63
2022/09/30 04:41:19;;;;;;;7.45;6.70;;;8.10;99.90;;;;;;5050490;28;20352;-63
2022/09/30 04:43:47;;;;;;;8.73;7.50;;;8.00;99.90;;;;;;5051203;28;20116;-63
2022/09/30 04:46:14;;;;;;;9.75;8.02;;;8.00;99.90;;;;;;5050868;28;20036;-64
2022/09/30 04:48:44;;;;;;;9.68;7.47;;;7.90;99.90;;;;;;5051096;28;20040;-64
2022/09/30 04:51:10;;;;;;;7.88;6.97;;;7.90;99.90;;;;;;5050686;28;20116;-64
2022/09/30 04:53:36;;;;;;;8.60;7.55;;;7.90;99.90;;;;;;5050785;28;20071;-63
2022/09/30 04:56:01;;;;;;;7.75;6.28;;;7.80;99.90;;;;;;5049835;28;20443;-63
2022/09/30 04:58:28;;;;;;;8.88;6.85;;;7.80;99.90;;;;;;5050006;28;20583;-64
2022/09/30 05:01:14;;;;;;;8.65;7.32;;;7.80;99.90;;;;;;5049350;28;20343;-64
2022/09/30 05:03:40;;;;;;;8.00;7.15;;;7.80;99.90;;;;;;5050526;28;20049;-63
2022/09/30 05:06:06;;;;;;;7.45;6.50;;;7.80;99.90;;;;;;5052895;28;20171;-63
2022/09/30 05:08:33;;;;;;;10.13;7.25;;;7.90;99.90;;;;;;5051910;28;20044;-64
2022/09/30 05:11:01;;;;;;;7.97;7.03;;;7.80;99.90;;;;;;5053763;28;20445;-63
2022/09/30 05:13:31;;;;;;;8.65;7.30;;;7.70;99.90;;;;;;5053901;28;20120;-64
2022/09/30 05:15:57;;;;;;;7.90;6.35;;;7.70;99.90;;;;;;5053318;28;20077;-63
2022/09/30 05:18:24;;;;;;;9.82;7.20;;;7.70;99.90;;;;;;5053729;28;20079;-63
2022/09/30 05:20:52;;;;;;;8.35;6.63;;;7.70;99.90;;;;;;5053394;28;20071;-63
2022/09/30 05:23:19;;;;;;;8.20;7.07;;;7.70;99.90;;;;;;5054380;28;20209;-64
2022/09/30 05:25:45;;;;;;;7.63;6.47;;;7.70;99.90;;;;;;5052996;28;20055;-63
2022/09/30 05:28:12;;;;;;;10.75;7.15;;;7.60;99.90;;;;;;5052702;28;20056;-64
2022/09/30 05:30:37;;;;;;;8.38;7.30;;;7.70;99.90;;;;;;5053695;28;20379;-65
2022/09/30 05:33:03;;;;;;;8.43;7.50;;;7.60;99.90;;;;;;5053900;28;20130;-64
2022/09/30 05:35:30;;;;;;;12.85;7.32;;;7.60;99.90;;;;;;5053274;28;20052;-65
2022/09/30 05:37:56;;;;;;;7.80;6.95;;;7.60;99.90;;;;;;5053668;28;20080;-64
2022/09/30 05:40:21;;;;;;;7.53;6.72;;;7.60;99.90;;;;;;5052872;28;20160;-66
2022/09/30 05:42:47;;;;;;;10.13;7.63;;;7.60;99.90;;;;;;5052931;28;20041;-65
2022/09/30 05:45:13;;;;;;;10.40;7.45;;;7.60;99.90;;;;;;5051837;28;20036;-66
2022/09/30 05:47:38;;;;;;;10.90;7.80;;;7.60;99.90;;;;;;5053382;28;20051;-65
2022/09/30 05:50:05;;;;;;;8.07;6.60;;;7.60;99.90;;;;;;5052296;28;20406;-66
2022/09/30 05:52:31;;;;;;;7.93;6.70;;;7.70;99.90;;;;;;5051623;28;20368;-66
2022/09/30 05:54:59;;;;;;;7.97;7.18;;;7.70;99.90;;;;;;5043730;28;20052;-65
2022/09/30 05:57:29;;;;;;;9.43;7.28;;;7.70;99.90;;;;;;5052532;28;20041;-65
2022/09/30 05:59:56;;;;;;;7.63;6.82;;;7.70;99.90;;;;;;5051176;28;20454;-64
2022/09/30 06:02:22;;;;;;;8.48;6.85;;;7.80;99.90;;;;;;5052033;28;20037;-64
2022/09/30 06:04:49;;;;;;;8.75;7.20;;;7.80;99.90;;;;;;5052870;28;20033;-65
2022/09/30 06:07:15;;;;;;;8.88;7.75;;;7.80;99.90;;;;;;5050146;28;20170;-63
2022/09/30 06:09:41;;;;;;;7.78;7.03;;;8.00;99.90;;;;;;5050293;28;20040;-66
2022/09/30 06:12:07;;;;;;;8.40;7.45;;;8.20;99.90;;;;;;5049847;28;20365;-64
2022/09/30 06:14:32;;;;;;;9.13;7.18;;;8.50;99.90;;;;;;5050434;28;20072;-67
2022/09/30 06:16:59;;;;;;;8.63;7.70;;;8.80;99.90;;;;;;5049941;28;20075;-66
2022/09/30 06:19:27;;;;;;;7.90;7.10;;;9.00;99.90;;;;;;5049090;28;20048;-64
2022/09/30 06:21:53;;;;;;;9.32;7.13;;;9.20;99.90;;;;;;5052246;28;20418;-65
2022/09/30 06:24:19;;;;;;;11.90;7.65;;;9.40;99.90;;;;;;5052263;28;20032;-67
2022/09/30 06:26:45;;;;;;;9.40;7.18;;;9.50;99.90;;;;;;5052348;28;20339;-66
2022/09/30 06:29:11;;;;;;;8.68;7.32;;;9.50;99.90;;;;;;5051691;28;20334;-65
2022/09/30 06:31:38;;;;;;;9.38;7.65;;;9.50;99.90;;;;;;5052125;28;20041;-65
2022/09/30 06:34:04;;;;;;;11.60;7.15;;;9.50;99.90;;;;;;5052374;28;20041;-65
2022/09/30 06:36:31;;;;;;;10.48;7.78;;;9.40;99.90;;;;;;5051206;28;20072;-64
2022/09/30 06:38:56;;;;;;;12.93;6.88;;;9.30;99.90;;;;;;5049554;28;20133;-65
2022/09/30 06:41:24;;;;;;;8.68;7.20;;;9.30;99.90;;;;;;5052137;28;20163;-65
2022/09/30 06:43:50;;;;;;;8.30;6.80;;;9.40;99.90;;;;;;5052866;28;20440;-65
2022/09/30 06:46:16;;;;;;;8.32;7.43;;;9.40;99.90;;;;;;5035291;28;20041;-65
2022/09/30 06:48:41;;;;;;;8.68;6.78;;;9.50;99.90;;;;;;5052673;28;20072;-65
2022/09/30 06:51:09;;;;;;;10.23;7.22;;;9.50;99.90;;;;;;5051611;28;20094;-64
2022/09/30 06:53:39;;;;;;;8.43;6.70;;;9.60;99.90;;;;;;5051664;28;20336;-65
2022/09/30 06:56:05;;;;;;;9.05;6.65;;;9.60;99.90;;;;;;5051409;28;20044;-65
2022/09/30 06:58:31;;;;;;;10.75;6.93;;;9.70;99.90;;;;;;5051036;28;20036;-65
2022/09/30 07:01:03;;;;;;;7.10;6.30;;;9.80;99.90;;;;;;5051444;28;20111;-64
2022/09/30 07:03:31;;;;;;;8.43;6.75;;;9.90;99.90;;;;;;5052591;28;20337;-64
2022/09/30 07:05:59;;;;;;;8.38;6.78;;;10.00;99.90;;;;;;5052513;28;20047;-64
2022/09/30 07:08:30;;;;;;;10.60;7.13;;;10.00;99.90;;;;;;5050960;28;20100;-65
2022/09/30 07:10:57;;;;;;;8.25;6.97;;;10.10;99.90;;;;;;5052111;28;20044;-64
2022/09/30 07:13:23;;;;;;;8.93;7.10;;;10.20;99.90;;;;;;5051401;28;20115;-64
2022/09/30 07:15:51;;;;;;;8.52;6.55;;;10.20;99.90;;;;;;5051230;28;20044;-64
2022/09/30 07:18:19;;;;;;;9.05;6.53;;;10.30;99.90;;;;;;5052127;28;20044;-64
2022/09/30 07:20:52;;;;;;;9.85;6.85;;;10.40;99.90;;;;;;5050733;28;20061;-64
2022/09/30 07:23:19;;;;;;;8.05;6.10;;;10.50;99.90;;;;;;5051812;28;20084;-64
2022/09/30 07:25:53;;;;;;;7.75;6.60;;;10.50;99.90;;;;;;5051977;28;20418;-65
2022/09/30 07:28:20;;;;;;;7.75;6.95;;;10.60;99.90;;;;;;5050875;28;20422;-64
2022/09/30 07:30:46;;;;;;;8.35;6.38;;;10.70;99.90;;;;;;5051710;28;20128;-64
2022/09/30 07:33:15;;;;;;;8.90;6.90;;;10.80;99.90;;;;;;5052267;28;20037;-65
2022/09/30 07:35:50;;;;;;;8.43;6.72;;;11.00;99.90;;;;;;5052028;28;20055;-64
2022/09/30 07:38:17;;;;;;;8.45;7.55;;;11.00;99.90;;;;;;5050255;28;20053;-64
2022/09/30 07:40:52;;;;;;;7.80;6.95;;;11.10;99.90;;;;;;5051838;28;20239;-64
2022/09/30 07:43:18;;;;;;;9.38;7.50;;;11.10;99.90;;;;;;5051824;28;20446;-64
2022/09/30 07:45:44;;;;;;;9.23;7.88;;;11.10;99.90;;;;;;5051874;28;20033;-64
2022/09/30 07:48:36;;;;;;;9.30;7.72;;;11.20;99.90;;;;;;5036937;28;20107;-63
2022/09/30 07:50:56;;;;;;;8.68;7.35;;;11.20;99.90;;;;;;5051042;28;20707;-62
2022/09/30 07:53:21;;;;;;;9.75;7.72;;;11.20;99.90;;;;;;5051680;28;20056;-63
2022/09/30 07:55:47;;;;;;;8.50;7.50;;;11.20;99.90;;;;;;5051194;28;20462;-64
2022/09/30 07:58:12;;;;;;;8.93;7.20;;;11.30;99.90;;;;;;5051597;28;20237;-63
2022/09/30 08:00:38;;;;;;;9.27;7.63;;;11.40;99.90;;;;;;5051448;28;20049;-63
2022/09/30 08:03:04;;;;;;;8.18;7.38;;;11.60;99.90;;;;;;5050612;28;20076;-64
2022/09/30 08:05:29;;;;;;;8.00;7.20;;;11.80;99.90;;;;;;5051682;28;20044;-63
2022/09/30 08:07:55;;;;;;;9.63;8.30;;;12.00;99.90;;;;;;5051721;28;20037;-63
2022/09/30 08:10:20;;;;;;;8.90;7.45;;;12.10;99.90;;;;;;5049926;28;20041;-64
2022/09/30 08:12:46;;;;;;;8.02;6.82;;;12.20;99.90;;;;;;5051214;28;20086;-63
2022/09/30 08:15:12;;;;;;;8.10;6.55;;;12.30;99.90;;;;;;5050314;28;20162;-63
2022/09/30 08:17:37;;;;;;;9.55;7.20;;;12.50;99.90;;;;;;5051518;28;20045;-64
2022/09/30 08:20:03;;;;;;;10.05;7.20;;;12.60;99.90;;;;;;5051185;28;20037;-63
2022/09/30 08:22:29;;;;;;;7.57;6.50;;;12.80;99.90;;;;;;5050013;28;20041;-64
2022/09/30 08:24:54;;;;;;;8.43;6.28;;;12.90;99.90;;;;;;5051645;28;20048;-63
2022/09/30 08:27:20;;;;;;;8.10;6.60;;;13.00;99.90;;;;;;5051539;28;20041;-64
2022/09/30 08:29:45;;;;;;;7.35;6.40;;;13.00;99.90;;;;;;5050698;28;20044;-63
2022/09/30 08:32:11;;;;;;;8.40;6.22;;;13.20;99.90;;;;;;5051279;28;20041;-63
2022/09/30 08:34:37;;;;;;;8.27;6.78;;;13.20;99.90;;;;;;5051628;28;20056;-63
2022/09/30 08:37:03;;;;;;;7.75;6.35;;;13.30;99.90;;;;;;5051341;28;20139;-63
2022/09/30 08:39:28;;;;;;;8.32;7.05;;;13.50;99.90;;;;;;5051709;28;20110;-63
2022/09/30 08:41:54;;;;;;;7.85;6.85;;;13.60;99.90;;;;;;5054881;28;20045;-64
2022/09/30 08:44:36;;;;;;;8.15;6.60;;;13.60;99.90;;;;;;5055182;28;20434;-64
2022/09/30 08:47:28;;;;;;;8.32;6.55;;;13.70;99.90;;;;;;5054321;28;20079;-63
2022/09/30 08:50:03;;;;;;;8.07;6.50;;;13.80;99.90;;;;;;5042464;28;20079;-64
2022/09/30 08:52:35;;;;;;;8.48;6.25;;;13.90;99.90;;;;;;5054853;28;20047;-63
2022/09/30 08:55:02;;;;;;;7.82;6.57;;;14.00;99.90;;;;;;5054841;28;20453;-63
2022/09/30 08:57:36;;;;;;;9.82;7.60;;;14.10;99.90;;;;;;5055132;28;20045;-64
2022/09/30 09:00:08;;;;;;;8.73;7.32;;;14.20;99.90;;;;;;5054128;28;20049;-63
2022/09/30 09:02:43;;;;;;;10.98;7.70;;;14.10;99.90;;;;;;5053518;28;20091;-63
2022/09/30 09:05:18;;;;;;;9.25;8.25;;;14.20;99.90;;;;;;5042325;28;20673;-64
2022/09/30 09:08:03;;;;;;;9.93;8.63;;;14.20;99.90;;;;;;5054835;28;20045;-63
2022/09/30 09:10:45;;;;;;;10.98;8.45;;;14.30;99.90;;;;;;5042920;28;20111;-63
2022/09/30 09:13:29;;;;;;;8.80;7.90;;;14.30;99.90;;;;;;5054168;28;20041;-64
2022/09/30 09:16:32;;;;;;;9.75;8.75;;;14.40;99.90;;;;;;5053429;28;20088;-63
2022/09/30 09:19:00;;;;;;;9.82;8.43;;;14.50;99.90;;;;;;5053288;28;20351;-63
2022/09/30 09:21:33;;;;;;;9.18;7.47;;;14.40;99.90;;;;;;5054266;28;20047;-63
2022/09/30 09:24:01;;;;;;;9.23;7.93;;;14.60;99.90;;;;;;5043431;28;20120;-63
2022/09/30 09:26:30;;;;;;;11.77;8.25;;;14.70;99.90;;;;;;5053955;28;20469;-63
2022/09/30 09:29:05;;;;;;;11.73;7.82;;;14.70;99.90;;;;;;5053751;28;20060;-63
2022/09/30 09:31:30;;;;;;;10.63;7.53;;;14.90;99.90;;;;;;5052619;28;20036;-63
2022/09/30 09:34:06;;;;;;;9.82;7.55;;;14.90;99.90;;;;;;5053031;28;20114;-64
2022/09/30 09:36:45;;;;;;;9.63;7.15;;;15.00;99.90;;;;;;5036853;28;20363;-65
2022/09/30 09:39:33;;;;;;;6.75;5.93;;;15.10;99.90;;;;;;5053259;28;20049;-64
2022/09/30 09:42:30;;;;;;;9.13;7.00;;;15.20;99.90;;;;;;5053751;28;20045;-64
2022/09/30 09:45:02;;;;;;;8.40;6.20;;;15.30;99.90;;;;;;5041698;28;20041;-64
2022/09/30 09:47:28;;;;;;;8.93;6.25;;;15.60;99.90;;;;;;5052811;28;20175;-64
2022/09/30 09:50:00;;;;;;;8.50;6.00;;;15.50;99.90;;;;;;5053376;28;20064;-65
2022/09/30 09:52:53;;;;;;;8.73;5.68;;;15.50;99.90;;;;;;5053622;28;20048;-64
2022/09/30 09:55:21;;;;;;;6.35;4.53;;;15.50;99.90;;;;;;5042199;28;20041;-63
2022/09/30 09:57:48;;;;;;;6.28;5.13;;;15.60;99.90;;;;;;5053712;28;20060;-63
2022/09/30 10:03:25;;;;;;;7.88;4.55;;;15.60;99.90;;;;;;5053599;28;20059;-63
2022/09/30 10:06:05;;;;;;;7.07;5.55;;;15.60;99.90;;;;;;5045392;28;20033;-64
2022/09/30 10:08:51;;;;;;;7.15;5.10;;;15.70;99.90;;;;;;5042181;28;20412;-64
2022/09/30 10:11:21;;;;;;;6.18;4.70;;;15.80;99.90;;;;;;5051016;28;20083;-64
2022/09/30 10:13:47;;;;;;;7.60;5.10;;;15.90;99.90;;;;;;5051960;28;20025;-64
2022/09/30 10:16:34;;;;;;;7.53;5.20;;;16.10;99.90;;;;;;5049418;28;20051;-64
2022/09/30 10:19:02;;;;;;;6.82;5.63;;;16.10;99.90;;;;;;5051594;28;20064;-64
2022/09/30 10:21:29;;;;;;;6.28;5.10;;;15.90;99.90;;;;;;5050293;28;20444;-63
2022/09/30 10:23:56;;;;;;;5.53;4.25;;;15.90;99.90;;;;;;5053710;28;20073;-64
2022/09/30 10:26:28;;;;;;;7.38;4.78;;;15.90;99.90;;;;;;5053426;28;20037;-64
2022/09/30 10:28:58;;;;;;;7.13;4.68;;;15.90;99.90;;;;;;5052499;28;20064;-64
2022/09/30 10:31:35;;;;;;;6.72;4.68;;;15.90;99.90;;;;;;5051927;28;20347;-64
2022/09/30 10:34:29;;;;;;;6.90;4.50;;;16.10;99.90;;;;;;5052574;28;20045;-63
2022/09/30 10:36:57;;;;;;;5.85;3.50;;;16.20;99.90;;;;;;5053113;28;20037;-64
2022/09/30 10:39:28;;;;;;;4.78;3.40;;;16.30;99.90;;;;;;5051098;28;20493;-64
2022/09/30 10:42:20;;;;;;;4.68;3.75;;;16.30;99.90;;;;;;5052857;28;20044;-64
2022/09/30 10:44:51;;;;;;;3.67;2.70;;;16.20;99.90;;;;;;5040605;28;20125;-63
2022/09/30 10:47:25;;;;;;;5.15;2.85;;;16.40;99.90;;;;;;5052337;28;20135;-62
2022/09/30 10:50:05;;;;;;;3.78;2.90;;;16.60;99.90;;;;;;5039022;28;20124;-62
2022/09/30 10:52:35;;;;;;;4.60;2.83;;;16.50;99.90;;;;;;5047447;28;20040;-62
2022/09/30 10:55:18;;;;;;;4.00;2.35;;;16.50;99.90;;;;;;5047635;28;20055;-63
2022/09/30 10:57:45;;;;;;;5.77;2.70;;;16.50;99.90;;;;;;5052900;28;20075;-62
2022/09/30 11:00:20;;;;;;;3.72;2.58;;;16.50;99.90;;;;;;5052141;28;20116;-63
2022/09/30 11:03:00;;;;;;;4.20;2.90;;;16.60;99.90;;;;;;5051787;28;20073;-63
2022/09/30 11:05:32;;;;;;;4.63;3.00;;;16.60;99.90;;;;;;5056218;28;20029;-62
2022/09/30 11:08:13;;;;;;;4.13;2.95;;;16.70;99.90;;;;;;5052020;28;20033;-63
2022/09/30 11:11:03;;;;;;;4.10;2.50;;;16.70;99.90;;;;;;5052335;28;20041;-64
2022/09/30 11:13:37;;;;;;;3.95;2.17;;;16.60;99.90;;;;;;5050714;28;20454;-63
2022/09/30 11:16:16;;;;;;;3.25;1.85;;;16.60;99.90;;;;;;5052389;28;20485;-62
2022/09/30 11:18:54;;;;;;;2.38;1.48;;;16.70;99.90;;;;;;5052006;28;20473;-64
2022/09/30 11:21:32;;;;;;;4.47;1.90;;;16.70;99.90;;;;;;5051865;28;20407;-63
2022/09/30 11:24:04;;;;;;;3.55;2.20;;;16.50;99.90;;;;;;5043565;28;20090;-63
2022/09/30 11:26:53;;;;;;;3.50;2.38;;;16.40;99.90;;;;;;5052188;28;20052;-63
2022/09/30 11:29:18;;;;;;;5.95;4.32;;;16.40;99.90;;;;;;5051863;28;20439;-63
2022/09/30 11:31:44;;;;;;;8.45;6.63;;;16.60;99.90;;;;;;5052027;28;20097;-64
2022/09/30 11:34:13;;;;;;;9.82;7.65;;;16.80;99.90;;;;;;5052143;28;20059;-63
2022/09/30 11:36:58;;;;;;;9.63;8.52;;;16.90;99.90;;;;;;5052080;28;20053;-63
2022/09/30 11:39:24;;;;;;;7.43;5.22;;;17.00;99.90;;;;;;5050118;28;20106;-64
2022/09/30 11:42:07;;;;;;;8.20;4.43;;;17.00;99.90;;;;;;5051285;28;20610;-63
2022/09/30 11:44:40;;;;;;;8.30;4.73;;;17.00;99.90;;;;;;5060868;28;20036;-63
2022/09/30 11:47:32;;;;;;;4.13;2.85;;;17.10;99.90;;;;;;5047945;28;20091;-66
2022/09/30 11:50:36;;;;;;;4.60;2.25;;;17.20;99.90;;;;;;5046055;28;20105;-62
2022/09/30 11:53:17;;;;;;;3.80;1.88;;;17.30;99.90;;;;;;5036916;28;20068;-63
2022/09/30 11:55:56;;;;;;;3.70;2.20;;;17.40;99.90;;;;;;5046669;28;20037;-64
2022/09/30 11:58:27;;;;;;;3.05;2.00;;;17.50;99.90;;;;;;5051210;28;20029;-63
2022/09/30 12:00:59;;;;;;;3.58;2.33;;;17.50;99.90;;;;;;5049755;28;20174;-63
2022/09/30 12:03:38;;;;;;;3.13;2.10;;;17.40;99.90;;;;;;5049392;28;20033;-63
2022/09/30 12:06:14;;;;;;;3.70;2.40;;;17.40;99.90;;;;;;5043120;28;20039;-63
2022/09/30 12:08:55;;;;;;;3.53;2.28;;;17.30;99.90;;;;;;5044213;28;20041;-64
2022/09/30 12:11:43;;;;;;;2.72;1.80;;;17.30;99.90;;;;;;5045858;28;20132;-63
2022/09/30 12:14:35;;;;;;;3.92;2.08;;;17.50;99.90;;;;;;5050448;28;20049;-63
2022/09/30 12:17:05;;;;;;;2.80;1.95;;;17.70;99.90;;;;;;5051028;28;20088;-63
2022/09/30 12:19:42;;;;;;;3.40;2.00;;;17.80;99.90;;;;;;5050730;28;20473;-63
2022/09/30 12:22:28;;;;;;;4.03;2.40;;;17.90;99.90;;;;;;5051091;28;20032;-63
2022/09/30 12:24:54;;;;;;;3.75;2.33;;;18.00;99.90;;;;;;5045461;28;20045;-63
2022/09/30 12:27:40;;;;;;;5.72;2.92;;;18.00;99.90;;;;;;5050636;28;20307;-63
2022/09/30 12:30:19;;;;;;;3.83;2.50;;;18.00;99.90;;;;;;5050414;28;20091;-63
2022/09/30 12:33:03;;;;;;;4.32;2.38;;;17.90;99.90;;;;;;5049791;28;20037;-64
2022/09/30 12:36:04;;;;;;;2.47;2.28;;;17.70;99.90;;;;;;5032863;28;20465;-63
2022/09/30 12:39:30;;;;;;;4.10;2.20;;;17.60;99.90;;;;;;5049512;28;20087;-63
2022/09/30 12:42:17;;;;;;;3.38;2.30;;;17.70;99.90;;;;;;5027740;28;20034;-64
2022/09/30 12:45:06;;;;;;;3.53;2.60;;;17.80;99.90;;;;;;5027081;28;20450;-65
2022/09/30 12:47:44;;;;;;;3.33;2.63;;;17.90;99.90;;;;;;5044032;28;20045;-63
2022/09/30 12:50:15;;;;;;;3.65;2.67;;;17.90;99.90;;;;;;5048141;28;20108;-65
2022/09/30 12:52:41;;;;;;;4.10;2.67;;;17.90;99.90;;;;;;5049611;28;20128;-64
2022/09/30 12:55:18;;;;;;;3.40;2.50;;;17.90;99.90;;;;;;5049848;28;20037;-63
2022/09/30 12:57:45;;;;;;;2.75;2.40;;;17.90;99.90;;;;;;5048036;28;20056;-64
2022/09/30 13:00:20;;;;;;;3.25;2.70;;;18.00;99.90;;;;;;5046681;28;20033;-64
2022/09/30 13:03:07;;;;;;;5.15;3.55;;;18.00;99.90;;;;;;5049284;28;20037;-64
2022/09/30 13:05:33;;;;;;;5.15;2.80;;;18.10;99.90;;;;;;5049414;28;20185;-63
2022/09/30 13:08:04;;;;;;;5.75;3.40;;;18.00;99.90;;;;;;5050557;28;20164;-64
2022/09/30 13:10:44;;;;;;;5.68;4.10;;;17.90;99.90;;;;;;5050589;28;20056;-64
2022/09/30 13:13:09;;;;;;;5.30;4.00;;;17.80;99.90;;;;;;5046512;28;20040;-63
2022/09/30 13:15:38;;;;;;;4.95;3.67;;;17.80;99.90;;;;;;5051066;28;20095;-64
2022/09/30 13:18:18;;;;;;;5.70;4.30;;;17.80;99.90;;;;;;5044862;28;20052;-64
2022/09/30 13:21:03;;;;;;;5.28;4.25;;;17.70;99.90;;;;;;5050131;28;20068;-63
2022/09/30 13:23:34;;;;;;;5.50;4.00;;;17.80;99.90;;;;;;5050562;28;20037;-63